Time;durP1;ratioP1;P1;durP2;ratioP2;P2;SDS_P1;SDS_P2;PMS_P1;PMS_P2;Temp;Humidity;BMP_temperature;BMP_pressure;BME280_temperature;BME280_humidity;BME280_pressure;Samples;Min_cycle;Max_cycle;Signal;HPM_P1;HPM_P2
2023/08/06 00:00:48;;;;;;;12.50;5.20;;;;;;;15.35;100.00;99267.95;109505;1252;67972;-69
2023/08/06 00:03:48;;;;;;;8.90;2.70;;;;;;;15.34;100.00;99265.92;109589;1252;71332;-65
2023/08/06 00:06:35;;;;;;;6.00;2.20;;;;;;;15.32;100.00;99258.85;109410;1252;58014;-61
2023/08/06 00:09:22;;;;;;;6.30;2.10;;;;;;;15.31;100.00;99253.18;109530;1252;60361;-62
2023/08/06 00:12:09;;;;;;;11.60;2.50;;;;;;;15.30;100.00;99235.36;109353;1252;73051;-64
2023/08/06 00:14:56;;;;;;;7.20;2.50;;;;;;;15.30;100.00;99227.10;109432;1253;67072;-61
2023/08/06 00:17:43;;;;;;;7.90;2.30;;;;;;;15.26;100.00;99217.25;109528;1252;71381;-63
2023/08/06 00:20:30;;;;;;;8.20;2.20;;;;;;;15.25;100.00;99217.29;109226;1253;59101;-63
2023/08/06 00:23:18;;;;;;;7.30;2.40;;;;;;;15.25;100.00;99223.45;109462;1253;58689;-64
2023/08/06 00:26:04;;;;;;;8.00;2.40;;;;;;;15.25;100.00;99216.69;109563;1252;73249;-63
2023/08/06 00:28:51;;;;;;;7.10;2.10;;;;;;;15.24;100.00;99216.11;109522;1252;67736;-63
2023/08/06 00:31:38;;;;;;;6.60;2.30;;;;;;;15.22;100.00;99214.53;109549;1252;73125;-62
2023/08/06 00:34:25;;;;;;;7.40;2.30;;;;;;;15.20;100.00;99214.93;109371;1252;57057;-65
2023/08/06 00:37:11;;;;;;;6.70;2.20;;;;;;;15.21;100.00;99218.77;109543;1252;60093;-64
2023/08/06 00:39:59;;;;;;;7.00;2.50;;;;;;;15.22;100.00;99216.15;109319;1253;72388;-61
2023/08/06 00:42:46;;;;;;;7.30;2.60;;;;;;;15.23;100.00;99212.76;109567;1252;66954;-63
2023/08/06 00:45:36;;;;;;;7.10;2.20;;;;;;;15.25;100.00;99219.65;108592;1252;1002792;-62
2023/08/06 00:48:23;;;;;;;13.80;2.70;;;;;;;15.26;100.00;99213.02;109385;1253;58081;-64
2023/08/06 00:51:11;;;;;;;7.50;2.10;;;;;;;15.24;100.00;99197.85;109298;1253;60172;-62
2023/08/06 00:53:57;;;;;;;8.60;2.20;;;;;;;15.22;100.00;99182.71;109544;1252;72280;-62
2023/08/06 00:56:46;;;;;;;8.90;2.20;;;;;;;15.22;100.00;99190.05;109282;1252;68826;-62
2023/08/06 00:59:33;;;;;;;9.30;2.60;;;;;;;15.21;100.00;99190.52;109456;1252;71110;-61
2023/08/06 01:02:20;;;;;;;8.40;2.30;;;;;;;15.21;100.00;99183.91;109378;1253;59560;-62
2023/08/06 01:05:07;;;;;;;7.80;2.40;;;;;;;15.21;100.00;99173.16;109546;1252;60503;-63
2023/08/06 01:08:03;;;;;;;6.60;2.00;;;;;;;15.23;100.00;99170.11;109402;1253;73228;-64
2023/08/06 01:11:12;;;;;;;7.70;2.10;;;;;;;15.23;100.00;99160.06;109584;1252;69117;-64
2023/08/06 01:14:13;;;;;;;6.50;2.10;;;;;;;15.22;100.00;99151.29;109504;1253;71896;-64
2023/08/06 01:17:01;;;;;;;8.20;2.50;;;;;;;15.21;100.00;99147.50;109353;1253;59664;-65
2023/08/06 01:19:48;;;;;;;8.60;2.40;;;;;;;15.19;100.00;99147.33;109229;1253;60307;-66
2023/08/06 01:22:36;;;;;;;8.30;2.40;;;;;;;15.15;100.00;99144.20;109152;1253;71590;-63
2023/08/06 01:25:33;;;;;;;7.30;2.10;;;;;;;15.11;100.00;99144.57;109437;1253;67837;-62
2023/08/06 01:28:44;;;;;;;8.40;2.70;;;;;;;15.08;100.00;99139.45;109271;1253;72361;-63
2023/08/06 01:31:43;;;;;;;7.60;2.30;;;;;;;15.04;100.00;99131.30;109383;1253;59306;-63
2023/08/06 01:34:34;;;;;;;6.90;2.40;;;;;;;15.01;100.00;99127.19;109414;1253;59448;-69
2023/08/06 01:37:21;;;;;;;7.30;2.10;;;;;;;14.98;100.00;99118.36;109437;1252;72324;-63
2023/08/06 01:40:16;;;;;;;7.70;2.50;;;;;;;14.96;100.00;99119.16;109360;1253;65512;-64
2023/08/06 01:43:03;;;;;;;7.80;2.10;;;;;;;14.93;100.00;99112.55;109497;1253;72640;-63
2023/08/06 01:45:50;;;;;;;7.70;2.30;;;;;;;14.89;100.00;99111.92;109489;1253;58109;-62
2023/08/06 01:48:36;;;;;;;5.90;2.10;;;;;;;14.86;100.00;99112.39;109364;1252;60173;-62
2023/08/06 01:51:23;;;;;;;8.80;2.10;;;;;;;14.82;100.00;99111.15;109450;1253;73464;-63
2023/08/06 01:54:22;;;;;;;6.90;2.00;;;;;;;14.79;100.00;99115.14;109577;1252;66523;-63
2023/08/06 01:57:25;;;;;;;7.40;2.20;;;;;;;14.77;100.00;99105.00;109235;1253;73185;-63
2023/08/06 02:00:12;;;;;;;6.00;2.00;;;;;;;14.76;100.00;99097.54;109569;1252;59388;-61
2023/08/06 02:02:59;;;;;;;8.40;2.00;;;;;;;14.71;100.00;99088.88;109603;1253;57986;-63
2023/08/06 02:05:46;;;;;;;5.90;2.00;;;;;;;14.69;100.00;99091.13;109363;1252;71242;-66
2023/08/06 02:08:32;;;;;;;6.10;1.90;;;;;;;14.68;100.00;99094.87;109535;1253;66410;-62
2023/08/06 02:11:18;;;;;;;7.70;2.10;;;;;;;14.67;100.00;99082.71;109407;1253;73601;-63
2023/08/06 02:14:05;;;;;;;7.10;2.10;;;;;;;14.66;100.00;99077.13;109333;1253;58123;-64
2023/08/06 02:16:51;;;;;;;7.60;2.60;;;;;;;14.62;100.00;99068.87;109518;1253;60174;-62
2023/08/06 02:19:37;;;;;;;6.70;2.10;;;;;;;14.62;100.00;99065.74;109522;1254;72124;-62
2023/08/06 02:22:24;;;;;;;5.90;2.00;;;;;;;14.62;100.00;99055.88;109341;1252;66277;-65
2023/08/06 02:25:11;;;;;;;7.50;2.30;;;;;;;14.61;100.00;99051.89;109528;1253;73806;-62
2023/08/06 02:27:59;;;;;;;8.60;2.40;;;;;;;14.60;100.00;99040.46;109400;1253;60004;-61
2023/08/06 02:30:52;;;;;;;6.50;2.40;;;;;;;14.60;100.00;99035.79;109407;1253;61404;-61
2023/08/06 02:33:38;;;;;;;10.10;2.70;;;;;;;14.61;100.00;99024.38;108787;1252;1002446;-62
2023/08/06 02:36:29;;;;;;;7.60;3.20;;;;;;;14.61;100.00;99015.52;109583;1252;69140;-62
2023/08/06 02:39:21;;;;;;;6.50;2.20;;;;;;;14.62;100.00;99007.34;109510;1252;73199;-63
2023/08/06 02:42:08;;;;;;;6.80;2.50;;;;;;;14.64;100.00;99000.15;108647;1252;1002446;-63
2023/08/06 02:44:55;;;;;;;7.40;2.80;;;;;;;14.65;100.00;98988.63;109536;1253;59014;-62
2023/08/06 02:47:42;;;;;;;7.30;2.60;;;;;;;14.66;100.00;98978.41;109388;1252;72297;-61
2023/08/06 02:50:28;;;;;;;7.70;2.50;;;;;;;14.67;100.00;98969.76;109548;1253;66412;-61
2023/08/06 02:53:16;;;;;;;7.40;2.50;;;;;;;14.67;100.00;98958.67;109291;1253;73685;-64
2023/08/06 02:56:05;;;;;;;6.30;2.40;;;;;;;14.68;100.00;98954.63;109470;1253;60493;-63
2023/08/06 02:59:01;;;;;;;7.90;2.80;;;;;;;14.68;100.00;98946.93;109563;1253;59026;-62
2023/08/06 03:01:56;;;;;;;7.80;2.60;;;;;;;14.69;100.00;98939.70;109318;1252;71952;-62
2023/08/06 03:04:48;;;;;;;7.00;2.60;;;;;;;14.71;100.00;98934.13;109575;1252;66436;-62
2023/08/06 03:07:37;;;;;;;7.10;2.40;;;;;;;14.73;100.00;98929.77;109483;1253;71914;-63
2023/08/06 03:10:29;;;;;;;9.10;2.80;;;;;;;14.76;100.00;98923.89;109327;1253;58096;-62
2023/08/06 03:13:19;;;;;;;7.40;2.80;;;;;;;14.79;100.00;98926.56;109357;1253;60554;-63
2023/08/06 03:16:05;;;;;;;7.90;3.00;;;;;;;14.83;100.00;98914.22;109508;1252;73137;-61
2023/08/06 03:18:53;;;;;;;7.70;2.60;;;;;;;14.86;100.00;98906.22;109480;1253;68787;-64
2023/08/06 03:21:40;;;;;;;9.00;2.80;;;;;;;14.89;100.00;98889.38;109352;1253;70859;-62
2023/08/06 03:24:27;;;;;;;9.80;3.10;;;;;;;14.92;100.00;98868.54;109363;1252;59336;-68
2023/08/06 03:27:15;;;;;;;8.70;3.10;;;;;;;14.94;100.00;98846.40;109294;1252;58305;-64
2023/08/06 03:30:03;;;;;;;8.70;2.80;;;;;;;14.99;100.00;98822.69;109542;1253;71915;-63
2023/08/06 03:32:50;;;;;;;7.10;2.70;;;;;;;15.03;100.00;98792.02;109369;1252;67949;-62
2023/08/06 03:35:37;;;;;;;6.70;2.90;;;;;;;15.07;100.00;98753.88;109442;1255;72552;-62
2023/08/06 03:38:25;;;;;;;8.40;3.40;;;;;;;15.11;100.00;98698.05;109435;1253;57956;-61
2023/08/06 03:41:12;;;;;;;9.40;3.30;;;;;;;15.14;100.00;98667.47;108816;1252;1002788;-62
2023/08/06 03:44:00;;;;;;;7.70;3.30;;;;;;;15.18;100.00;98682.61;109283;1253;72092;-62
2023/08/06 03:46:49;;;;;;;7.20;2.90;;;;;;;15.22;100.00;98713.89;109486;1253;65766;-64
2023/08/06 03:49:36;;;;;;;7.10;2.60;;;;;;;15.27;100.00;98718.33;109536;1253;72442;-61
2023/08/06 03:52:24;;;;;;;8.40;2.80;;;;;;;15.33;100.00;98720.16;109361;1256;58289;-62
2023/08/06 03:55:11;;;;;;;10.20;3.20;;;;;;;15.39;100.00;98744.38;109607;1253;58724;-63
2023/08/06 03:57:57;;;;;;;8.10;2.80;;;;;;;15.44;100.00;98745.98;109317;1253;72323;-60
2023/08/06 04:00:44;;;;;;;9.20;3.10;;;;;;;15.48;100.00;98757.63;109536;1253;68991;-63
2023/08/06 04:03:32;;;;;;;8.60;2.80;;;;;;;15.52;100.00;98761.10;109471;1252;72628;-63
2023/08/06 04:06:19;;;;;;;7.20;2.80;;;;;;;15.56;100.00;98752.55;109497;1253;57220;-63
2023/08/06 04:09:08;;;;;;;9.20;3.10;;;;;;;15.61;100.00;98748.98;108794;1253;1002390;-65
2023/08/06 04:11:55;;;;;;;9.60;3.30;;;;;;;15.62;100.00;98747.92;109560;1252;72160;-65
2023/08/06 04:14:42;;;;;;;8.40;2.60;;;;;;;15.63;100.00;98742.65;109313;1253;65429;-64
2023/08/06 04:17:29;;;;;;;8.30;2.90;;;;;;;15.66;100.00;98740.66;109511;1252;72424;-62
2023/08/06 04:20:16;;;;;;;9.20;3.30;;;;;;;15.70;100.00;98735.54;109485;1255;57901;-63
2023/08/06 04:23:06;;;;;;;8.40;2.90;;;;;;;15.73;100.00;98719.36;109093;1254;61654;-65
2023/08/06 04:25:57;;;;;;;9.10;2.70;;;;;;;15.74;100.00;98706.14;108569;1253;1070217;-67
2023/08/06 04:28:46;;;;;;;9.00;2.70;;;;;;;15.74;100.00;98702.34;109222;1254;66825;-63
2023/08/06 04:31:33;;;;;;;8.60;2.70;;;;;;;15.72;100.00;98694.31;109319;1254;72531;-64
2023/08/06 04:34:20;;;;;;;8.60;2.70;;;;;;;15.72;100.00;98695.09;109242;1254;60319;-69
2023/08/06 04:37:07;;;;;;;8.70;3.40;;;;;;;15.73;100.00;98682.06;109473;1254;60218;-64
2023/08/06 04:39:54;;;;;;;6.80;2.80;;;;;;;15.73;100.00;98674.20;109317;1254;72209;-66
2023/08/06 04:42:43;;;;;;;8.60;3.20;;;;;;;15.74;100.00;98669.09;109291;1254;67894;-64
2023/08/06 04:45:33;;;;;;;10.90;3.30;;;;;;;15.75;100.00;98670.83;108928;1256;72864;-64
2023/08/06 04:48:19;;;;;;;11.00;3.40;;;;;;;15.74;100.00;98683.20;109158;1256;59628;-64
2023/08/06 04:51:06;;;;;;;10.60;3.20;;;;;;;15.75;100.00;98679.46;109026;1256;61283;-63
2023/08/06 04:53:52;;;;;;;8.20;3.00;;;;;;;15.78;100.00;98663.20;109150;1256;72923;-66
2023/08/06 04:56:39;;;;;;;8.30;3.10;;;;;;;15.80;100.00;98642.04;109276;1255;67686;-63
2023/08/06 04:59:28;;;;;;;10.30;3.40;;;;;;;15.81;100.00;98632.14;109212;1256;72553;-64
2023/08/06 05:02:15;;;;;;;8.50;2.90;;;;;;;15.83;100.00;98647.45;109215;1255;59325;-64
2023/08/06 05:05:02;;;;;;;9.60;3.70;;;;;;;15.86;100.00;98649.11;109211;1254;60449;-72
2023/08/06 05:07:50;;;;;;;10.30;3.30;;;;;;;15.89;100.00;98645.52;109372;1256;73453;-74
2023/08/06 05:10:36;;;;;;;10.30;3.60;;;;;;;15.92;100.00;98647.21;109288;1255;68680;-73
2023/08/06 05:13:23;;;;;;;11.00;3.50;;;;;;;15.95;100.00;98648.66;109171;1254;72805;-74
2023/08/06 05:16:10;;;;;;;10.20;3.20;;;;;;;15.99;100.00;98654.40;109186;1252;57958;-74
2023/08/06 05:18:59;;;;;;;10.70;3.90;;;;;;;16.02;100.00;98658.94;109294;1253;61404;-72
2023/08/06 05:21:48;;;;;;;9.20;3.40;;;;;;;16.06;100.00;98656.69;109362;1252;72181;-73
2023/08/06 05:24:35;;;;;;;11.90;3.50;;;;;;;16.10;100.00;98660.80;109548;1253;67162;-75
2023/08/06 05:27:21;;;;;;;10.90;3.20;;;;;;;16.13;100.00;98662.95;109353;1253;72692;-73
2023/08/06 05:30:09;;;;;;;9.70;3.20;;;;;;;16.15;100.00;98661.47;109262;1253;58736;-73
2023/08/06 05:32:56;;;;;;;11.10;3.90;;;;;;;16.19;100.00;98653.30;109561;1253;60116;-72
2023/08/06 05:35:43;;;;;;;11.20;3.50;;;;;;;16.21;100.00;98647.10;109302;1253;71004;-71
2023/08/06 05:38:31;;;;;;;8.80;3.10;;;;;;;16.27;100.00;98646.73;109419;1253;65664;-74
2023/08/06 05:41:22;;;;;;;7.20;3.20;;;;;;;16.29;100.00;98638.41;109452;1253;73427;-71
2023/08/06 05:44:08;;;;;;;7.80;3.00;;;;;;;16.33;100.00;98631.10;109549;1253;58066;-69
2023/08/06 05:46:55;;;;;;;8.10;3.00;;;;;;;16.37;100.00;98610.45;109495;1253;59490;-71
2023/08/06 05:49:41;;;;;;;7.10;2.80;;;;;;;16.42;100.00;98607.34;109249;1253;70953;-72
2023/08/06 05:52:28;;;;;;;6.10;2.30;;;;;;;16.45;100.00;98622.87;109547;1252;66692;-72
2023/08/06 05:55:14;;;;;;;7.60;2.70;;;;;;;16.48;100.00;98630.49;109506;1253;71545;-71
2023/08/06 05:58:01;;;;;;;7.60;2.40;;;;;;;16.52;100.00;98624.66;109540;1252;60394;-70
2023/08/06 06:00:49;;;;;;;7.40;2.50;;;;;;;16.54;100.00;98610.93;109600;1252;59507;-69
2023/08/06 06:03:39;;;;;;;6.40;2.10;;;;;;;16.57;100.00;98579.50;109415;1253;71056;-74
2023/08/06 06:06:26;;;;;;;7.60;2.10;;;;;;;16.59;100.00;98517.64;109414;1252;67802;-73
2023/08/06 06:09:13;;;;;;;6.60;2.30;;;;;;;16.61;100.00;98501.66;109272;1253;70731;-70
2023/08/06 06:12:00;;;;;;;6.30;2.30;;;;;;;16.63;100.00;98496.89;109461;1253;58483;-72
2023/08/06 06:14:47;;;;;;;6.50;2.20;;;;;;;16.64;100.00;98499.29;109549;1253;60389;-69
2023/08/06 06:17:34;;;;;;;6.20;2.20;;;;;;;16.66;100.00;98534.66;109382;1253;70926;-73
2023/08/06 06:20:22;;;;;;;5.90;1.90;;;;;;;16.68;100.00;98540.80;109403;1253;67607;-72
2023/08/06 06:23:10;;;;;;;7.40;2.50;;;;;;;16.67;100.00;98514.06;109347;1253;72742;-63
2023/08/06 06:26:03;;;;;;;9.20;2.80;;;;;;;16.66;100.00;98510.98;109512;1253;59363;-67
2023/08/06 06:29:26;;;;;;;7.90;3.00;;;;;;;16.65;100.00;98510.00;109315;1255;59361;-63
2023/08/06 06:32:36;;;;;;;9.50;3.20;;;;;;;16.66;100.00;98528.31;109158;1256;72119;-63
2023/08/06 06:35:22;;;;;;;7.70;3.30;;;;;;;16.67;100.00;98538.81;109167;1256;67812;-63
2023/08/06 06:38:09;;;;;;;8.60;3.40;;;;;;;16.69;100.00;98541.76;109279;1256;72740;-63
2023/08/06 06:40:56;;;;;;;8.70;3.40;;;;;;;16.72;100.00;98542.43;109146;1255;60085;-63
2023/08/06 06:43:44;;;;;;;8.50;3.20;;;;;;;16.74;100.00;98548.98;109223;1256;58592;-63
2023/08/06 06:46:31;;;;;;;9.30;3.30;;;;;;;16.76;100.00;98551.89;109229;1256;72106;-63
2023/08/06 06:49:17;;;;;;;10.70;4.20;;;;;;;16.79;100.00;98542.52;109170;1256;69459;-64
2023/08/06 06:52:05;;;;;;;10.80;3.90;;;;;;;16.83;100.00;98531.89;109187;1256;73821;-63
2023/08/06 06:54:51;;;;;;;9.00;3.60;;;;;;;16.86;100.00;98519.71;109189;1255;59342;-63
2023/08/06 06:57:47;;;;;;;9.20;4.20;;;;;;;16.91;100.00;98505.58;109067;1258;61641;-62
2023/08/06 07:00:38;;;;;;;8.80;3.90;;;;;;;16.97;100.00;98496.20;109040;1257;72306;-64
2023/08/06 07:03:28;;;;;;;9.40;3.60;;;;;;;17.03;100.00;98491.39;109278;1256;68091;-63
2023/08/06 07:06:15;;;;;;;7.90;3.40;;;;;;;17.11;100.00;98489.58;108995;1257;71226;-65
2023/08/06 07:09:03;;;;;;;8.30;3.50;;;;;;;17.15;100.00;98490.99;109393;1254;59548;-63
2023/08/06 07:11:52;;;;;;;7.10;3.40;;;;;;;17.18;100.00;98477.61;109327;1251;60031;-68
2023/08/06 07:14:39;;;;;;;6.00;2.80;;;;;;;17.24;100.00;98462.58;109499;1253;71408;-66
2023/08/06 07:17:27;;;;;;;6.80;2.70;;;;;;;17.28;100.00;98458.25;109360;1253;67477;-64
2023/08/06 07:20:13;;;;;;;7.00;3.20;;;;;;;17.32;100.00;98447.67;109399;1253;70775;-66
2023/08/06 07:23:00;;;;;;;7.80;3.20;;;;;;;17.36;100.00;98443.09;109331;1253;59793;-65
2023/08/06 07:25:54;;;;;;;8.00;3.20;;;;;;;17.40;100.00;98445.09;109507;1254;61238;-65
2023/08/06 07:28:43;;;;;;;6.60;2.90;;;;;;;17.42;100.00;98440.30;109472;1253;72139;-67
2023/08/06 07:31:29;;;;;;;7.40;2.80;;;;;;;17.45;100.00;98432.68;109538;1253;67841;-64
2023/08/06 07:34:16;;;;;;;6.50;2.70;;;;;;;17.52;100.00;98432.66;109392;1254;71328;-65
2023/08/06 07:37:03;;;;;;;8.60;3.40;;;;;;;17.61;100.00;98433.27;109495;1254;59980;-64
2023/08/06 07:39:50;;;;;;;7.20;2.90;;;;;;;17.71;100.00;98429.84;109379;1254;59202;-66
2023/08/06 07:42:37;;;;;;;6.80;2.80;;;;;;;17.80;100.00;98419.13;109561;1252;71033;-68
2023/08/06 07:45:24;;;;;;;8.20;3.00;;;;;;;17.88;100.00;98418.27;109499;1253;66391;-66
2023/08/06 07:48:12;;;;;;;8.60;4.20;;;;;;;17.95;100.00;98406.70;109412;1252;70123;-66
2023/08/06 07:51:00;;;;;;;7.40;2.80;;;;;;;18.00;100.00;98400.48;109462;1254;60347;-64
2023/08/06 07:53:47;;;;;;;7.30;3.00;;;;;;;18.03;100.00;98395.84;109454;1252;58723;-67
2023/08/06 07:56:33;;;;;;;9.90;3.10;;;;;;;18.08;100.00;98392.82;109563;1254;72619;-65
2023/08/06 07:59:22;;;;;;;8.40;3.30;;;;;;;18.15;100.00;98389.58;109408;1252;65664;-64
2023/08/06 08:02:13;;;;;;;7.10;2.80;;;;;;;18.22;100.00;98385.92;109507;1251;71906;-68
2023/08/06 08:05:01;;;;;;;5.80;2.10;;;;;;;18.29;100.00;98374.64;109385;1251;58202;-68
2023/08/06 08:07:48;;;;;;;7.30;2.50;;;;;;;18.33;100.00;98367.84;109586;1252;58408;-65
2023/08/06 08:10:36;;;;;;;7.50;2.50;;;;;;;18.34;100.00;98357.19;109342;1252;73190;-66
2023/08/06 08:13:24;;;;;;;8.80;3.10;;;;;;;18.35;100.00;98341.73;109538;1253;68120;-65
2023/08/06 08:16:11;;;;;;;8.10;3.00;;;;;;;18.45;100.00;98335.08;109511;1254;72696;-66
2023/08/06 08:18:58;;;;;;;7.40;2.40;;;;;;;18.55;100.00;98330.40;109126;1254;59647;-68
2023/08/06 08:21:45;;;;;;;7.80;3.00;;;;;;;18.60;100.00;98323.63;109554;1254;59024;-70
2023/08/06 08:24:32;;;;;;;8.10;3.20;;;;;;;18.60;100.00;98318.13;109478;1254;72303;-64
2023/08/06 08:27:18;;;;;;;7.30;2.90;;;;;;;18.61;100.00;98317.36;109614;1253;68886;-66
2023/08/06 08:30:06;;;;;;;8.60;3.20;;;;;;;18.67;100.00;98311.65;109585;1253;74007;-63
2023/08/06 08:32:54;;;;;;;8.30;3.40;;;;;;;18.70;100.00;98312.85;109599;1254;59031;-65
2023/08/06 08:35:48;;;;;;;7.10;3.20;;;;;;;18.73;100.00;98311.80;109584;1254;60250;-66
2023/08/06 08:38:47;;;;;;;8.00;3.20;;;;;;;18.75;100.00;98307.64;109593;1255;71209;-65
2023/08/06 08:42:07;;;;;;;7.90;3.40;;;;;;;18.80;100.00;98294.92;109546;1251;66535;-65
2023/08/06 08:45:14;;;;;;;8.20;3.20;;;;;;;18.78;100.00;98292.34;109192;1254;71343;-63
2023/08/06 08:48:04;;;;;;;9.80;3.80;;;;;;;18.72;100.00;98288.30;109510;1254;58614;-65
2023/08/06 08:50:51;;;;;;;8.00;2.80;;;;;;;18.69;100.00;98279.58;109408;1254;60111;-65
2023/08/06 08:53:57;;;;;;;;;;;;;;;;;;;;;
2023/08/06 08:56:59;;;;;;;8.50;3.80;;;;;;;18.69;100.00;98269.55;109313;1254;68846;-64
2023/08/06 08:59:47;;;;;;;9.60;3.90;;;;;;;18.71;100.00;98259.34;109346;1254;72689;-66
2023/08/06 09:02:36;;;;;;;8.30;3.50;;;;;;;18.79;100.00;98254.85;109271;1254;57952;-65
2023/08/06 09:05:24;;;;;;;10.70;3.70;;;;;;;18.79;100.00;98253.90;109247;1254;60233;-64
2023/08/06 09:08:19;;;;;;;9.00;4.30;;;;;;;18.82;100.00;98244.06;109346;1254;72056;-65
2023/08/06 09:11:10;;;;;;;10.30;5.80;;;;;;;18.82;100.00;98235.73;108576;1254;1002643;-62
2023/08/06 09:13:57;;;;;;;10.00;4.70;;;;;;;18.79;100.00;98229.73;109358;1254;72600;-66
2023/08/06 09:16:44;;;;;;;10.90;5.30;;;;;;;18.78;100.00;98225.02;109330;1254;59603;-68
2023/08/06 09:19:32;;;;;;;11.20;5.70;;;;;;;18.78;100.00;98217.09;109404;1252;60329;-64
2023/08/06 09:22:35;;;;;;;8.50;4.10;;;;;;;18.76;100.00;98210.05;109502;1252;72834;-67
2023/08/06 09:25:46;;;;;;;9.90;5.10;;;;;;;18.76;100.00;98199.45;109579;1254;66458;-69
2023/08/06 09:28:43;;;;;;;9.80;5.00;;;;;;;18.74;100.00;98190.29;109577;1251;73763;-68
2023/08/06 09:31:48;;;;;;;12.40;5.50;;;;;;;18.77;100.00;98182.44;109489;1253;59580;-64
2023/08/06 09:34:41;;;;;;;11.00;5.60;;;;;;;18.74;100.00;98166.46;109416;1252;61254;-65
2023/08/06 09:37:35;;;;;;;11.30;5.80;;;;;;;18.70;100.00;98155.50;109389;1252;73156;-66
2023/08/06 09:40:31;;;;;;;10.60;5.50;;;;;;;18.68;100.00;98147.80;109240;1254;65632;-66
2023/08/06 09:43:19;;;;;;;11.00;5.80;;;;;;;18.74;100.00;98139.15;109143;1253;72691;-66
2023/08/06 09:46:16;;;;;;;10.80;5.40;;;;;;;18.87;100.00;98139.30;109234;1253;59436;-66
2023/08/06 09:49:45;;;;;;;13.10;6.40;;;;;;;19.03;100.00;98157.02;109315;1251;60396;-68
2023/08/06 09:52:38;;;;;;;12.20;5.80;;;;;;;19.17;100.00;98165.39;109395;1254;70790;-65
2023/08/06 09:55:26;;;;;;;11.30;5.60;;;;;;;19.33;100.00;98168.52;109498;1252;67710;-67
2023/08/06 09:58:14;;;;;;;11.10;5.50;;;;;;;19.43;100.00;98171.75;109524;1253;72708;-66
2023/08/06 10:01:03;;;;;;;14.00;6.30;;;;;;;19.50;100.00;98173.27;109490;1252;57998;-63
2023/08/06 10:03:53;;;;;;;12.30;5.60;;;;;;;19.54;100.00;98173.80;109437;1254;60176;-65
2023/08/06 10:06:41;;;;;;;10.60;5.10;;;;;;;19.53;100.00;98175.46;109443;1253;70683;-68
2023/08/06 10:09:30;;;;;;;12.90;6.50;;;;;;;19.50;100.00;98173.02;109414;1253;66616;-65
2023/08/06 10:12:19;;;;;;;16.90;6.60;;;;;;;19.52;100.00;98168.96;109402;1253;73717;-65
2023/08/06 10:15:12;;;;;;;10.90;6.00;;;;;;;19.54;100.00;98167.66;109544;1252;59433;-67
2023/08/06 10:18:01;;;;;;;14.10;8.00;;;;;;;19.52;100.00;98167.39;109585;1251;59099;-69
2023/08/06 10:20:49;;;;;;;14.20;8.00;;;;;;;19.51;100.00;98164.30;109584;1252;70874;-68
2023/08/06 10:23:40;;;;;;;13.30;6.70;;;;;;;19.53;100.00;98160.20;109510;1253;67877;-65
2023/08/06 10:26:30;;;;;;;11.40;6.90;;;;;;;19.53;100.00;98161.02;109527;1252;71510;-67
2023/08/06 10:29:44;;;;;;;12.50;6.70;;;;;;;19.54;100.00;98154.64;109160;1253;60168;-69
2023/08/06 10:32:49;;;;;;;12.50;6.80;;;;;;;19.53;100.00;98144.77;109448;1252;60999;-66
2023/08/06 10:35:53;;;;;;;15.50;6.60;;;;;;;19.51;100.00;98133.80;109415;1253;73300;-68
2023/08/06 10:38:50;;;;;;;13.20;7.20;;;;;;;19.48;100.00;98124.23;109469;1252;67926;-72
2023/08/06 10:41:42;;;;;;;12.90;7.30;;;;;;;19.48;100.00;98122.55;109322;1253;73035;-66
2023/08/06 10:44:30;;;;;;;15.40;8.10;;;;;;;19.51;100.00;98117.57;109376;1253;59323;-66
2023/08/06 10:47:28;;;;;;;14.40;7.50;;;;;;;19.53;100.00;98106.41;109556;1252;61135;-66
2023/08/06 10:50:17;;;;;;;13.00;7.10;;;;;;;19.51;100.00;98097.34;109286;1253;72070;-65
2023/08/06 10:53:08;;;;;;;11.80;7.10;;;;;;;19.47;100.00;98091.98;109360;1252;68850;-65
2023/08/06 10:55:55;;;;;;;16.20;7.80;;;;;;;19.46;100.00;98093.59;109455;1253;71385;-67
2023/08/06 10:58:44;;;;;;;13.40;7.60;;;;;;;19.51;100.00;98085.73;109085;1257;59394;-65
2023/08/06 11:01:34;;;;;;;13.40;7.90;;;;;;;19.55;100.00;98074.10;109144;1256;60617;-67
2023/08/06 11:04:21;;;;;;;14.60;7.80;;;;;;;19.60;100.00;98071.80;109107;1256;73287;-65
2023/08/06 11:07:10;;;;;;;15.70;8.20;;;;;;;19.70;100.00;98071.80;109085;1256;66324;-65
2023/08/06 11:10:08;;;;;;;14.70;7.90;;;;;;;19.85;100.00;98064.95;109161;1256;71798;-65
2023/08/06 11:12:55;;;;;;;17.10;9.40;;;;;;;20.00;100.00;98065.99;109108;1255;58543;-65
2023/08/06 11:15:42;;;;;;;15.70;8.10;;;;;;;20.28;100.00;98056.42;109091;1257;60380;-66
2023/08/06 11:18:30;;;;;;;14.10;7.80;;;;;;;20.61;100.00;98065.02;109037;1258;72313;-68
2023/08/06 11:21:22;;;;;;;15.00;7.90;;;;;;;20.95;100.00;98064.54;109143;1255;67851;-66
2023/08/06 11:24:10;;;;;;;13.60;7.80;;;;;;;21.27;100.00;98061.84;108947;1257;74159;-67
2023/08/06 11:26:57;;;;;;;15.10;8.00;;;;;;;21.46;100.00;98057.33;109049;1257;59636;-69
2023/08/06 11:29:45;;;;;;;16.10;8.30;;;;;;;21.79;100.00;98044.36;109349;1254;59649;-65
2023/08/06 11:32:33;;;;;;;15.40;8.00;;;;;;;22.18;100.00;98043.27;109254;1254;72136;-69
2023/08/06 11:35:23;;;;;;;13.80;8.30;;;;;;;22.39;99.96;98042.48;109303;1253;67841;-66
2023/08/06 11:38:16;;;;;;;13.00;7.40;;;;;;;22.62;99.09;98042.57;109218;1253;72719;-69
2023/08/06 11:41:11;;;;;;;15.30;8.00;;;;;;;22.73;96.12;98037.06;109211;1254;59462;-64
2023/08/06 11:43:59;;;;;;;13.20;7.10;;;;;;;22.69;95.88;98041.80;109365;1253;59115;-68
2023/08/06 11:46:56;;;;;;;13.40;7.80;;;;;;;22.65;95.42;98040.67;109479;1252;73363;-66
2023/08/06 11:49:49;;;;;;;16.00;8.00;;;;;;;22.62;94.19;98038.39;109366;1253;68029;-67
2023/08/06 11:52:42;;;;;;;13.70;7.50;;;;;;;22.58;93.68;98031.35;109396;1253;72701;-67
2023/08/06 11:55:29;;;;;;;14.30;8.20;;;;;;;22.51;94.26;98026.19;109244;1253;59292;-65
2023/08/06 11:58:17;;;;;;;13.30;8.30;;;;;;;22.47;94.49;98022.98;109261;1253;59439;-67
2023/08/06 12:01:05;;;;;;;13.00;7.80;;;;;;;22.52;94.37;98018.89;109370;1252;72351;-68
2023/08/06 12:04:04;;;;;;;13.50;8.30;;;;;;;22.71;93.75;98013.21;109251;1253;66628;-68
2023/08/06 12:06:55;;;;;;;14.20;8.20;;;;;;;22.78;93.30;98010.01;109241;1253;70751;-67
2023/08/06 12:09:44;;;;;;;12.70;8.00;;;;;;;22.89;92.69;98010.98;109169;1254;58781;-69
2023/08/06 12:12:34;;;;;;;12.40;8.10;;;;;;;23.25;92.14;97998.73;109185;1252;60357;-65
2023/08/06 12:15:23;;;;;;;12.90;8.80;;;;;;;23.76;91.04;97994.33;109386;1254;72015;-67
2023/08/06 12:18:11;;;;;;;14.60;8.60;;;;;;;24.14;88.45;97994.23;109425;1252;67994;-67
2023/08/06 12:21:00;;;;;;;14.80;8.70;;;;;;;24.42;86.80;97992.44;109437;1252;72740;-68
2023/08/06 12:23:55;;;;;;;15.90;8.70;;;;;;;24.73;85.99;97992.05;109386;1252;57895;-67
2023/08/06 12:26:43;;;;;;;21.60;10.50;;;;;;;24.76;83.99;97982.70;109230;1254;58057;-69
2023/08/06 12:29:33;;;;;;;13.30;8.70;;;;;;;24.79;82.61;97978.86;109426;1252;72048;-64
2023/08/06 12:32:26;;;;;;;14.40;9.00;;;;;;;24.82;82.61;97976.27;109398;1252;68659;-68
2023/08/06 12:35:21;;;;;;;14.90;8.60;;;;;;;24.80;82.63;97970.00;109351;1252;72628;-66
2023/08/06 12:38:13;;;;;;;15.20;9.60;;;;;;;24.84;82.60;97966.64;109475;1252;56852;-68
2023/08/06 12:41:06;;;;;;;14.90;8.80;;;;;;;25.08;82.56;97959.27;109499;1252;58868;-67
2023/08/06 12:43:55;;;;;;;13.80;8.60;;;;;;;25.35;81.68;97946.81;109293;1252;70993;-69
2023/08/06 12:46:44;;;;;;;15.10;8.00;;;;;;;25.63;80.32;97937.85;109396;1252;67127;-69
2023/08/06 12:49:32;;;;;;;15.50;9.00;;;;;;;25.78;78.11;97928.73;109351;1252;72743;-69
2023/08/06 12:52:20;;;;;;;14.50;8.00;;;;;;;25.71;77.09;97923.66;109513;1252;57818;-69
2023/08/06 12:55:09;;;;;;;14.60;8.80;;;;;;;25.65;77.69;97920.59;109357;1252;58647;-70
2023/08/06 12:58:03;;;;;;;13.50;8.70;;;;;;;25.71;77.91;97916.30;109302;1252;70911;-69
2023/08/06 13:01:04;;;;;;;13.00;8.70;;;;;;;25.88;76.44;97908.25;109294;1253;67886;-67